< < Back
Terminal Aerodrome Forecast


Current Version              Previous Versions:   1  2  3  4  5  6  7  8  9  

Terminal Aerodrome Forecast

273
FTUS44 KMRX 052330
TAFCHA
TAF
KCHA 052330Z 0600/0624 34014KT P6SM BKN020 OVC060
     FM060300 36012KT P6SM OVC020
     FM060700 01008KT P6SM SCT015
     FM061200 01005KT P6SM SKC=



Latest METAR

408
SAUS80 KWBC 060200 RRA
MTRCHA
METAR KCHA 060153Z 36020G24KT 10SM BKN024 M03/M07 A3042 RMK AO2 SLP306
T10281072


USA.gov is the U.S. government's official web portal to all federal, state and local government web resources and services.